Time;durP1;ratioP1;P1;durP2;ratioP2;P2;SDS_P1;SDS_P2;PMS_P1;PMS_P2;Temp;Humidity;BMP_temperature;BMP_pressure;BME280_temperature;BME280_humidity;BME280_pressure;Samples;Min_cycle;Max_cycle;Signal;HPM_P1;HPM_P2
2024/01/29 00:02:17;;;;;;;2.20;1.52;;;11.20;42.50;;;;;;5028927;28;20201;-85
2024/01/29 00:04:45;;;;;;;2.30;1.60;;;11.30;42.30;;;;;;5018832;28;20646;-85
2024/01/29 00:07:12;;;;;;;3.03;1.80;;;11.20;42.20;;;;;;5027558;28;20219;-85
2024/01/29 00:09:41;;;;;;;2.25;1.73;;;11.20;42.60;;;;;;5047275;28;20198;-85
2024/01/29 00:12:08;;;;;;;2.47;1.90;;;11.20;42.60;;;;;;5023241;28;20214;-84
2024/01/29 00:14:36;;;;;;;2.23;1.90;;;11.20;42.50;;;;;;5030251;28;20195;-85
2024/01/29 00:17:04;;;;;;;3.27;2.10;;;11.20;42.50;;;;;;5023770;28;20579;-84
2024/01/29 00:19:32;;;;;;;2.33;1.97;;;11.20;42.70;;;;;;5025228;28;20206;-84
2024/01/29 00:22:00;;;;;;;1.70;1.60;;;11.10;42.90;;;;;;5030948;28;20195;-84
2024/01/29 00:24:28;;;;;;;3.72;1.98;;;11.10;42.90;;;;;;5016615;28;20199;-84
2024/01/29 00:26:55;;;;;;;3.87;1.83;;;11.00;43.00;;;;;;5031702;28;20218;-84
2024/01/29 00:29:23;;;;;;;2.50;2.00;;;11.10;43.00;;;;;;5021649;28;20206;-84
2024/01/29 00:31:51;;;;;;;2.30;1.80;;;11.10;43.20;;;;;;5021003;28;20213;-85
2024/01/29 00:34:19;;;;;;;3.20;2.17;;;11.00;43.30;;;;;;5030616;28;20225;-84
2024/01/29 00:36:48;;;;;;;2.77;1.87;;;11.00;43.30;;;;;;5035297;28;20217;-85
2024/01/29 00:39:16;;;;;;;2.43;1.90;;;11.00;43.30;;;;;;5027098;28;20567;-84
2024/01/29 00:41:43;;;;;;;2.47;1.60;;;11.00;43.40;;;;;;5024694;28;20187;-84
2024/01/29 00:44:11;;;;;;;2.93;1.90;;;11.10;43.20;;;;;;5018101;28;20211;-85
2024/01/29 00:46:40;;;;;;;2.63;1.97;;;11.00;43.40;;;;;;5027765;28;20231;-84
2024/01/29 00:49:07;;;;;;;2.80;1.93;;;11.00;43.50;;;;;;5047139;28;20210;-85
2024/01/29 00:51:36;;;;;;;3.27;1.70;;;11.00;43.30;;;;;;5023845;28;20211;-84
2024/01/29 00:54:05;;;;;;;1.73;1.63;;;10.90;43.20;;;;;;5029173;28;20194;-85
2024/01/29 00:56:35;;;;;;;2.30;1.80;;;10.90;43.40;;;;;;5035558;28;20592;-84
2024/01/29 00:59:03;;;;;;;3.10;2.20;;;11.00;43.30;;;;;;5042624;28;20197;-84
2024/01/29 01:01:31;;;;;;;3.08;2.15;;;10.90;43.50;;;;;;5027365;28;20190;-85
2024/01/29 01:03:58;;;;;;;2.27;1.83;;;10.90;43.50;;;;;;5020753;28;20199;-84
2024/01/29 01:06:26;;;;;;;1.90;1.80;;;11.00;43.30;;;;;;5028798;28;20225;-84
2024/01/29 01:08:53;;;;;;;2.37;1.83;;;10.80;43.50;;;;;;5019184;28;20199;-84
2024/01/29 01:11:22;;;;;;;1.90;1.60;;;10.90;43.50;;;;;;5031022;28;20210;-84
2024/01/29 01:13:51;;;;;;;3.67;1.90;;;10.90;43.60;;;;;;5045481;28;20660;-84
2024/01/29 01:16:19;;;;;;;3.53;2.03;;;10.90;43.60;;;;;;5025282;28;20230;-84
2024/01/29 01:18:46;;;;;;;2.47;1.73;;;10.90;43.50;;;;;;5026963;28;20664;-84
2024/01/29 01:21:14;;;;;;;2.60;1.93;;;10.90;43.90;;;;;;5037877;28;20194;-85
2024/01/29 01:23:41;;;;;;;1.77;1.60;;;10.90;43.90;;;;;;5038240;28;20198;-85
2024/01/29 01:26:09;;;;;;;1.83;1.50;;;10.90;43.90;;;;;;5019933;28;20218;-85
2024/01/29 01:28:38;;;;;;;2.67;1.80;;;10.80;44.20;;;;;;5027883;28;20209;-84
2024/01/29 01:31:05;;;;;;;2.37;2.07;;;10.80;44.40;;;;;;5029901;28;20210;-85
2024/01/29 01:33:33;;;;;;;1.70;1.60;;;10.80;44.50;;;;;;5031613;28;20194;-84
2024/01/29 01:36:00;;;;;;;2.47;1.80;;;10.70;44.60;;;;;;5029759;28;20676;-84
2024/01/29 01:38:28;;;;;;;1.97;1.77;;;10.70;44.70;;;;;;5028741;28;20201;-85
2024/01/29 01:40:57;;;;;;;3.03;2.10;;;10.70;44.80;;;;;;5039351;28;20195;-84
2024/01/29 01:43:25;;;;;;;2.93;2.43;;;10.70;44.80;;;;;;5046070;28;20194;-84
2024/01/29 01:46:14;;;;;;;2.03;1.93;;;10.70;45.10;;;;;;5025344;28;20214;-85
2024/01/29 01:48:41;;;;;;;2.00;1.80;;;10.60;45.10;;;;;;5015371;28;20210;-84
2024/01/29 01:51:09;;;;;;;2.07;1.83;;;10.70;45.20;;;;;;5023033;28;20211;-84
2024/01/29 01:53:38;;;;;;;2.60;1.97;;;10.70;45.30;;;;;;5034905;28;20194;-84
2024/01/29 01:56:07;;;;;;;2.20;2.00;;;10.70;45.50;;;;;;5026975;28;20731;-84
2024/01/29 01:58:35;;;;;;;2.67;2.00;;;10.70;45.50;;;;;;5006877;28;20225;-84
2024/01/29 02:01:04;;;;;;;2.20;2.00;;;10.70;45.70;;;;;;5024021;28;20668;-84
2024/01/29 02:03:32;;;;;;;1.90;1.70;;;10.60;45.60;;;;;;5025821;28;20191;-84
2024/01/29 02:05:59;;;;;;;2.10;1.90;;;10.60;45.70;;;;;;5028713;28;20587;-84
2024/01/29 02:08:27;;;;;;;2.73;2.03;;;10.60;45.70;;;;;;5017958;28;20203;-84
2024/01/29 02:10:58;;;;;;;2.37;1.90;;;10.60;45.90;;;;;;5024202;28;20195;-84
2024/01/29 02:13:28;;;;;;;2.23;1.97;;;10.60;46.10;;;;;;5040412;28;20215;-84
2024/01/29 02:15:56;;;;;;;2.60;2.13;;;10.60;46.20;;;;;;5029893;28;20222;-84
2024/01/29 02:18:25;;;;;;;2.33;2.10;;;10.60;46.40;;;;;;5022491;28;20210;-84
2024/01/29 02:20:55;;;;;;;4.30;1.80;;;10.50;46.40;;;;;;5026119;28;20195;-85
2024/01/29 02:23:24;;;;;;;2.73;1.90;;;10.50;47.10;;;;;;5034869;28;20288;-84
2024/01/29 02:25:52;;;;;;;2.43;2.23;;;10.50;46.70;;;;;;5003615;28;20574;-84
2024/01/29 02:28:19;;;;;;;3.40;1.70;;;10.50;47.00;;;;;;5031090;28;20194;-84
2024/01/29 02:30:47;;;;;;;2.10;1.90;;;10.40;47.00;;;;;;5028266;28;20191;-84
2024/01/29 02:33:16;;;;;;;2.60;1.87;;;10.40;47.00;;;;;;5024667;28;20219;-84
2024/01/29 02:35:47;;;;;;;2.90;1.97;;;10.40;47.20;;;;;;5027932;28;20219;-84
2024/01/29 02:38:15;;;;;;;3.87;2.23;;;10.40;47.00;;;;;;5025289;28;20546;-84
2024/01/29 02:40:44;;;;;;;2.33;1.93;;;10.40;47.30;;;;;;5028168;28;20214;-84
2024/01/29 02:43:11;;;;;;;2.13;1.93;;;10.40;47.40;;;;;;5041184;28;20203;-85
2024/01/29 02:45:39;;;;;;;2.43;2.10;;;10.30;47.30;;;;;;5029486;28;20190;-84
2024/01/29 02:48:07;;;;;;;2.70;2.00;;;10.40;47.50;;;;;;5035892;28;20195;-86
2024/01/29 02:50:34;;;;;;;2.17;1.90;;;10.40;47.50;;;;;;5016389;28;20199;-84
2024/01/29 02:53:02;;;;;;;3.40;2.13;;;10.30;47.60;;;;;;5026013;28;20217;-86
2024/01/29 02:55:30;;;;;;;2.13;1.90;;;10.30;47.90;;;;;;5028092;28;20199;-84
2024/01/29 02:57:59;;;;;;;3.40;2.10;;;10.30;48.20;;;;;;5028393;28;20195;-85
2024/01/29 03:00:28;;;;;;;2.80;1.70;;;10.20;48.30;;;;;;5025775;28;20650;-84
2024/01/29 03:02:57;;;;;;;2.17;1.90;;;10.20;48.30;;;;;;5039961;28;20179;-84
2024/01/29 03:05:27;;;;;;;2.90;2.20;;;10.20;48.30;;;;;;5028181;28;20206;-84
2024/01/29 03:07:56;;;;;;;2.90;2.27;;;10.20;48.80;;;;;;5024745;28;20203;-84
2024/01/29 03:10:24;;;;;;;3.17;2.30;;;10.30;48.50;;;;;;5034891;28;20203;-85
2024/01/29 03:12:52;;;;;;;2.20;1.90;;;10.20;48.40;;;;;;5027907;28;20217;-83
2024/01/29 03:15:24;;;;;;;2.43;2.23;;;10.20;48.50;;;;;;5034760;28;20556;-84
2024/01/29 03:17:54;;;;;;;2.70;2.17;;;10.20;48.70;;;;;;5016497;28;20207;-84
2024/01/29 03:20:22;;;;;;;3.33;2.00;;;10.20;48.70;;;;;;5026551;28;20199;-83
2024/01/29 03:22:56;;;;;;;2.40;2.20;;;10.20;48.50;;;;;;5030715;28;20187;-83
2024/01/29 03:25:24;;;;;;;3.37;2.50;;;10.20;48.70;;;;;;5033423;28;20560;-83
2024/01/29 03:27:51;;;;;;;2.73;2.07;;;10.10;48.70;;;;;;5028277;28;20209;-83
2024/01/29 03:30:19;;;;;;;2.97;2.10;;;10.10;48.70;;;;;;5033138;28;20210;-83
2024/01/29 03:32:49;;;;;;;1.90;1.77;;;10.20;48.80;;;;;;5025321;28;20211;-84
2024/01/29 03:35:17;;;;;;;2.63;2.10;;;10.10;49.00;;;;;;5034060;28;20199;-83
2024/01/29 03:37:45;;;;;;;3.17;2.20;;;10.10;49.10;;;;;;5030247;28;20215;-83
2024/01/29 03:40:14;;;;;;;3.27;2.20;;;10.10;49.10;;;;;;5032049;28;20228;-85
2024/01/29 03:42:46;;;;;;;4.07;2.17;;;10.10;49.00;;;;;;5023664;28;20203;-83
2024/01/29 03:45:13;;;;;;;2.83;2.13;;;10.10;49.10;;;;;;5035406;28;20197;-84
2024/01/29 03:47:41;;;;;;;2.27;2.07;;;10.10;49.20;;;;;;5028188;28;20218;-84
2024/01/29 03:50:11;;;;;;;2.93;1.90;;;10.00;49.30;;;;;;5040144;28;20200;-84
2024/01/29 03:52:38;;;;;;;2.17;1.90;;;10.00;49.50;;;;;;5027890;28;20210;-84
2024/01/29 03:55:06;;;;;;;6.43;2.43;;;10.10;49.50;;;;;;5036759;28;20195;-83
2024/01/29 03:57:35;;;;;;;2.30;2.10;;;10.00;49.50;;;;;;5037833;28;20233;-84
2024/01/29 04:00:02;;;;;;;2.80;1.97;;;10.00;49.80;;;;;;5023995;28;20210;-83
2024/01/29 04:02:39;;;;;;;2.33;2.00;;;10.00;50.00;;;;;;5043201;28;20202;-85
2024/01/29 04:05:08;;;;;;;3.10;2.00;;;10.00;50.10;;;;;;5019141;28;20199;-84
2024/01/29 04:07:38;;;;;;;3.10;1.90;;;10.00;50.10;;;;;;5037130;28;20218;-84
2024/01/29 04:10:06;;;;;;;3.30;2.23;;;10.00;50.30;;;;;;5047063;28;20181;-84
2024/01/29 04:12:34;;;;;;;3.00;2.23;;;9.90;51.50;;;;;;5043897;28;20649;-84
2024/01/29 04:15:02;;;;;;;1.97;1.73;;;9.90;51.70;;;;;;5045310;28;20198;-84
2024/01/29 04:17:29;;;;;;;2.73;2.10;;;9.90;51.90;;;;;;5060955;22;20230;-81
2024/01/29 04:19:57;;;;;;;2.67;2.47;;;9.80;52.20;;;;;;5031877;28;20225;-81
2024/01/29 04:22:25;;;;;;;3.57;2.20;;;9.80;52.40;;;;;;5025372;28;20653;-81
2024/01/29 04:24:54;;;;;;;2.57;2.30;;;9.80;52.50;;;;;;5018592;28;20203;-81
2024/01/29 04:27:21;;;;;;;3.10;2.20;;;9.80;52.60;;;;;;5037137;28;20202;-81
2024/01/29 04:29:49;;;;;;;3.43;2.53;;;9.80;52.60;;;;;;5006857;28;20244;-81
2024/01/29 04:32:16;;;;;;;2.60;2.23;;;9.80;52.70;;;;;;5036639;28;20695;-81
2024/01/29 04:34:44;;;;;;;2.83;1.97;;;9.70;52.80;;;;;;5028773;28;20207;-81
2024/01/29 04:37:11;;;;;;;2.50;1.93;;;9.80;53.00;;;;;;5023123;28;20214;-81
2024/01/29 04:39:39;;;;;;;3.90;2.27;;;9.80;53.10;;;;;;4999982;28;20216;-81
2024/01/29 04:42:08;;;;;;;2.90;2.23;;;9.70;53.20;;;;;;5004943;28;20652;-81
2024/01/29 04:44:36;;;;;;;3.10;2.27;;;9.80;53.40;;;;;;5012315;28;20199;-81
2024/01/29 04:47:04;;;;;;;4.57;2.27;;;9.70;53.40;;;;;;5007538;28;20672;-81
2024/01/29 04:49:32;;;;;;;2.57;2.30;;;9.80;53.90;;;;;;5009819;28;20578;-81
2024/01/29 04:51:59;;;;;;;2.37;2.17;;;9.70;53.90;;;;;;4993537;28;20200;-81
2024/01/29 04:54:28;;;;;;;4.03;2.77;;;9.70;54.00;;;;;;5017288;28;20685;-81
2024/01/29 04:56:55;;;;;;;2.67;2.07;;;9.70;54.20;;;;;;5011043;28;20207;-81
2024/01/29 04:59:24;;;;;;;2.60;2.40;;;9.70;54.70;;;;;;5020605;28;20216;-81
2024/01/29 05:01:51;;;;;;;3.30;2.37;;;9.80;54.80;;;;;;5002937;28;20218;-81
2024/01/29 05:04:19;;;;;;;3.10;2.40;;;9.70;54.70;;;;;;5012637;28;20195;-81
2024/01/29 05:06:46;;;;;;;2.53;2.13;;;9.70;54.90;;;;;;5018504;28;20652;-81
2024/01/29 05:09:15;;;;;;;4.40;2.40;;;9.70;55.30;;;;;;5009457;28;20226;-81
2024/01/29 05:11:42;;;;;;;3.53;2.40;;;9.70;55.50;;;;;;5017473;28;20561;-81
2024/01/29 05:14:10;;;;;;;2.70;2.23;;;9.70;55.50;;;;;;5000938;28;20604;-81
2024/01/29 05:16:38;;;;;;;2.53;2.20;;;9.70;55.70;;;;;;5017919;28;20187;-81
2024/01/29 05:19:07;;;;;;;3.03;2.40;;;9.60;56.00;;;;;;5029747;28;20226;-81
2024/01/29 05:21:34;;;;;;;2.00;1.80;;;9.70;56.30;;;;;;5021851;28;20200;-81
2024/01/29 05:24:02;;;;;;;3.33;2.67;;;9.70;56.60;;;;;;5009934;28;20192;-81
2024/01/29 05:26:29;;;;;;;3.63;2.40;;;9.60;56.70;;;;;;5024231;28;20191;-81
2024/01/29 05:28:57;;;;;;;2.57;2.30;;;9.60;57.10;;;;;;5023798;28;20581;-81
2024/01/29 05:31:24;;;;;;;4.63;2.80;;;9.50;57.30;;;;;;5019527;28;20651;-81
2024/01/29 05:33:53;;;;;;;2.50;2.30;;;9.60;57.80;;;;;;5024706;28;20224;-81
2024/01/29 05:36:20;;;;;;;4.60;2.70;;;9.50;57.90;;;;;;5008696;28;20202;-81
2024/01/29 05:38:48;;;;;;;3.30;2.33;;;9.50;58.30;;;;;;5010794;28;20216;-81
2024/01/29 05:41:15;;;;;;;3.43;2.47;;;9.50;58.50;;;;;;5006983;28;20204;-81
2024/01/29 05:43:43;;;;;;;4.10;2.90;;;9.50;58.70;;;;;;5005605;28;20560;-81
2024/01/29 05:46:10;;;;;;;3.80;2.47;;;9.50;59.00;;;;;;5014388;28;20214;-81
2024/01/29 05:48:38;;;;;;;5.07;2.40;;;9.50;59.30;;;;;;5022464;28;20213;-81
2024/01/29 05:51:07;;;;;;;3.30;2.60;;;9.50;59.70;;;;;;5002870;28;20199;-81
2024/01/29 05:53:34;;;;;;;4.23;2.90;;;9.50;60.10;;;;;;5006730;28;20220;-81
2024/01/29 05:56:05;;;;;;;2.67;2.47;;;9.40;60.50;;;;;;5014628;28;20202;-82
2024/01/29 05:58:34;;;;;;;3.57;2.80;;;9.40;61.20;;;;;;5033762;28;20223;-81
2024/01/29 06:01:02;;;;;;;4.47;2.63;;;9.40;61.60;;;;;;5024976;28;20204;-81
2024/01/29 06:03:29;;;;;;;2.90;2.63;;;9.40;62.10;;;;;;5023943;28;20195;-81
2024/01/29 06:09:22;;;;;;;4.87;2.73;;;9.30;63.30;;;;;;5012601;28;20238;-83
2024/01/29 06:11:53;;;;;;;3.30;2.50;;;9.30;64.00;;;;;;4999352;28;20212;-83
2024/01/29 06:14:21;;;;;;;3.73;2.70;;;9.30;64.80;;;;;;5018280;28;20216;-82
2024/01/29 06:16:49;;;;;;;3.87;2.70;;;9.30;65.00;;;;;;5002838;28;20191;-82
2024/01/29 06:19:18;;;;;;;3.07;2.77;;;9.20;65.50;;;;;;5014403;28;20231;-82
2024/01/29 06:21:49;;;;;;;4.17;3.20;;;9.20;66.00;;;;;;5015239;28;20215;-83
2024/01/29 06:24:17;;;;;;;3.83;3.30;;;9.20;66.70;;;;;;5007643;28;20228;-82
2024/01/29 06:26:46;;;;;;;3.40;3.07;;;9.20;67.40;;;;;;5002227;28;20211;-82
2024/01/29 06:29:16;;;;;;;4.27;3.27;;;9.20;67.90;;;;;;5019414;28;20239;-82
2024/01/29 06:31:44;;;;;;;5.70;2.97;;;9.20;68.40;;;;;;5012014;28;20211;-82
2024/01/29 06:34:12;;;;;;;3.10;2.60;;;9.30;68.80;;;;;;5011695;28;20211;-82
2024/01/29 06:36:39;;;;;;;3.93;2.80;;;9.20;69.40;;;;;;5015585;28;20203;-82
2024/01/29 06:39:08;;;;;;;3.13;2.60;;;9.20;70.20;;;;;;5013956;28;20690;-82
2024/01/29 06:41:36;;;;;;;3.23;2.77;;;9.00;71.10;;;;;;5012270;28;20204;-82
2024/01/29 06:44:05;;;;;;;3.37;2.67;;;9.10;72.00;;;;;;5009567;28;20203;-83
2024/01/29 06:46:32;;;;;;;4.57;2.80;;;9.10;72.90;;;;;;4998356;28;20204;-84
2024/01/29 06:49:00;;;;;;;5.50;3.40;;;9.10;73.50;;;;;;5003553;28;20589;-84
2024/01/29 06:51:29;;;;;;;3.33;3.03;;;9.00;74.40;;;;;;5015583;28;20654;-84
2024/01/29 06:53:57;;;;;;;4.33;2.87;;;9.00;75.10;;;;;;5000748;28;20215;-84
2024/01/29 06:56:25;;;;;;;4.17;2.80;;;9.00;75.70;;;;;;5026431;28;20202;-84
2024/01/29 06:58:52;;;;;;;4.60;2.80;;;9.00;76.50;;;;;;5000363;28;20215;-84
2024/01/29 07:01:26;;;;;;;3.57;3.00;;;9.00;76.90;;;;;;4989245;28;20214;-84
2024/01/29 07:03:53;;;;;;;4.37;2.73;;;9.00;77.40;;;;;;5014265;28;20196;-84
2024/01/29 07:06:21;;;;;;;4.27;3.10;;;9.00;78.30;;;;;;4992957;28;20567;-84
2024/01/29 07:08:49;;;;;;;4.27;3.10;;;9.00;78.50;;;;;;4997191;28;20219;-85
2024/01/29 07:11:16;;;;;;;4.23;2.87;;;8.90;79.10;;;;;;5021867;28;20196;-84
2024/01/29 07:13:44;;;;;;;4.33;3.07;;;8.90;80.70;;;;;;5020535;28;20204;-85
2024/01/29 07:16:12;;;;;;;4.23;3.27;;;8.90;80.40;;;;;;5020634;28;20227;-83
2024/01/29 07:18:41;;;;;;;3.90;2.90;;;8.90;80.90;;;;;;5006238;28;20251;-84
2024/01/29 07:21:10;;;;;;;6.67;3.60;;;8.90;81.60;;;;;;5022737;28;20196;-84
2024/01/29 07:23:41;;;;;;;3.23;2.83;;;8.80;82.40;;;;;;5022533;28;20196;-84
2024/01/29 07:26:09;;;;;;;3.87;3.43;;;8.80;82.70;;;;;;4999586;28;20200;-78
2024/01/29 07:28:36;;;;;;;5.27;3.33;;;8.90;83.50;;;;;;5016133;28;20223;-79
2024/01/29 07:31:04;;;;;;;4.40;3.47;;;8.90;84.10;;;;;;5008381;28;20200;-78
2024/01/29 07:33:32;;;;;;;4.57;3.07;;;8.80;84.50;;;;;;4992753;28;20199;-78
2024/01/29 07:36:06;;;;;;;4.90;3.77;;;8.90;85.20;;;;;;5009468;28;20587;-78
2024/01/29 07:38:34;;;;;;;4.53;3.03;;;8.90;85.40;;;;;;4994423;28;20586;-78
2024/01/29 07:41:02;;;;;;;4.50;3.47;;;8.90;85.60;;;;;;5014840;28;20334;-80
2024/01/29 07:43:31;;;;;;;4.30;3.23;;;8.90;86.30;;;;;;4996596;28;20207;-80
2024/01/29 07:45:59;;;;;;;4.60;3.10;;;8.80;86.60;;;;;;4996456;28;20204;-77
2024/01/29 07:48:27;;;;;;;5.27;2.87;;;8.90;87.00;;;;;;5009368;28;20224;-78
2024/01/29 07:50:54;;;;;;;4.03;3.17;;;8.90;87.20;;;;;;4996471;28;20202;-80
2024/01/29 07:53:23;;;;;;;4.00;3.00;;;8.80;87.40;;;;;;5012083;28;20226;-78
2024/01/29 07:55:51;;;;;;;4.80;3.53;;;8.90;87.80;;;;;;4989790;28;20708;-78
2024/01/29 07:58:18;;;;;;;4.03;2.97;;;8.90;88.30;;;;;;4994332;28;20227;-78
2024/01/29 08:00:52;;;;;;;4.80;3.27;;;8.90;88.50;;;;;;4993257;28;20200;-78
2024/01/29 08:03:19;;;;;;;4.53;3.10;;;8.80;89.00;;;;;;5011022;28;20199;-80
2024/01/29 08:05:47;;;;;;;4.80;3.40;;;8.90;89.40;;;;;;5013533;28;20559;-79
2024/01/29 08:08:14;;;;;;;4.07;3.47;;;8.90;89.70;;;;;;5011883;28;20234;-78
2024/01/29 08:10:44;;;;;;;3.40;3.00;;;8.90;89.80;;;;;;5002415;28;20234;-79
2024/01/29 08:13:11;;;;;;;6.13;3.20;;;8.90;90.10;;;;;;5012178;28;20669;-79
2024/01/29 08:15:45;;;;;;;5.00;3.40;;;8.90;90.20;;;;;;4998189;28;20704;-79
2024/01/29 08:18:12;;;;;;;6.63;3.50;;;9.00;90.30;;;;;;4996957;28;20231;-78
2024/01/29 08:20:40;;;;;;;3.90;3.50;;;8.90;90.50;;;;;;5003667;28;20295;-78
2024/01/29 08:23:07;;;;;;;4.27;3.13;;;9.00;90.50;;;;;;4995541;28;20203;-78
2024/01/29 08:25:35;;;;;;;3.73;3.23;;;9.00;90.60;;;;;;4999881;28;20198;-78
2024/01/29 08:28:05;;;;;;;4.60;3.40;;;9.00;90.70;;;;;;5012973;28;20223;-78
2024/01/29 08:30:32;;;;;;;4.80;3.17;;;9.00;90.90;;;;;;5012550;28;20200;-78
2024/01/29 08:33:00;;;;;;;3.60;3.30;;;9.00;91.00;;;;;;5011241;28;20200;-79
2024/01/29 08:35:27;;;;;;;4.20;3.77;;;9.00;91.20;;;;;;5015200;28;20218;-78
2024/01/29 08:37:55;;;;;;;4.50;3.73;;;9.00;91.30;;;;;;4994872;28;20226;-78
2024/01/29 08:40:22;;;;;;;4.20;3.70;;;9.10;91.90;;;;;;4996425;28;20204;-78
2024/01/29 08:42:50;;;;;;;4.97;3.70;;;9.20;91.60;;;;;;5011705;28;20653;-78
2024/01/29 08:45:19;;;;;;;4.80;4.37;;;9.20;91.70;;;;;;5020679;28;20195;-78
2024/01/29 08:47:47;;;;;;;6.07;3.60;;;9.20;91.50;;;;;;5011731;28;20226;-78
2024/01/29 08:50:14;;;;;;;5.20;4.03;;;9.30;91.60;;;;;;5011339;28;20780;-78
2024/01/29 08:52:42;;;;;;;4.07;3.67;;;9.40;91.70;;;;;;4994596;28;20207;-78
2024/01/29 08:55:10;;;;;;;4.67;3.43;;;9.40;91.50;;;;;;5012702;28;20223;-78
2024/01/29 08:57:37;;;;;;;4.40;3.90;;;9.50;91.50;;;;;;4979410;28;20534;-78
2024/01/29 09:00:05;;;;;;;6.30;4.00;;;9.60;91.50;;;;;;4996698;28;20215;-78
2024/01/29 09:02:35;;;;;;;5.83;3.67;;;9.70;91.40;;;;;;4995626;28;20203;-78
2024/01/29 09:05:03;;;;;;;4.47;3.70;;;9.80;91.30;;;;;;4996554;28;20580;-78
2024/01/29 09:07:30;;;;;;;4.47;4.07;;;9.80;91.30;;;;;;4996692;28;20196;-78
2024/01/29 09:09:57;;;;;;;5.17;4.03;;;9.80;91.20;;;;;;5011536;28;20211;-78
2024/01/29 09:12:25;;;;;;;5.77;4.40;;;9.80;91.30;;;;;;5013279;28;20192;-78
2024/01/29 09:14:52;;;;;;;4.17;3.57;;;9.80;91.20;;;;;;4992852;28;20200;-78
2024/01/29 09:17:20;;;;;;;4.80;4.00;;;9.80;91.30;;;;;;5011641;28;20210;-78
2024/01/29 09:19:51;;;;;;;5.33;3.67;;;9.80;91.30;;;;;;4995608;28;20238;-78
2024/01/29 09:22:19;;;;;;;5.93;4.13;;;9.90;91.30;;;;;;5004892;28;20242;-78
2024/01/29 09:24:46;;;;;;;6.37;3.87;;;9.90;91.40;;;;;;5008309;28;20207;-78
2024/01/29 09:27:14;;;;;;;6.03;4.10;;;9.90;91.40;;;;;;4986363;28;20203;-78
2024/01/29 09:29:41;;;;;;;10.57;4.07;;;10.00;91.00;;;;;;5007389;28;20216;-78
2024/01/29 09:32:09;;;;;;;4.53;4.10;;;10.10;91.00;;;;;;4995141;28;20210;-78
2024/01/29 09:34:36;;;;;;;5.33;3.90;;;10.10;90.70;;;;;;4999874;28;20219;-78
2024/01/29 09:37:05;;;;;;;6.93;3.80;;;10.20;90.70;;;;;;5015314;28;20215;-78
2024/01/29 09:39:33;;;;;;;4.83;3.90;;;10.30;90.70;;;;;;5000078;28;20226;-77
2024/01/29 09:42:04;;;;;;;6.33;3.90;;;10.30;90.70;;;;;;5019676;28;20196;-79
2024/01/29 09:44:40;;;;;;;5.73;4.70;;;10.40;90.60;;;;;;5016940;28;20200;-80
2024/01/29 09:47:08;;;;;;;4.10;3.73;;;10.40;90.90;;;;;;5011841;28;20210;-76
2024/01/29 09:49:36;;;;;;;5.77;3.90;;;10.50;90.90;;;;;;5014619;28;20220;-76
2024/01/29 09:52:06;;;;;;;5.30;4.13;;;10.60;90.70;;;;;;5012356;28;20223;-77
2024/01/29 09:54:36;;;;;;;3.93;3.53;;;10.60;90.80;;;;;;5021057;28;20213;-77
2024/01/29 09:57:05;;;;;;;5.33;4.17;;;10.60;90.90;;;;;;5012910;28;20219;-77
2024/01/29 09:59:32;;;;;;;4.80;4.03;;;10.70;90.80;;;;;;4998529;28;20223;-76
2024/01/29 10:02:03;;;;;;;4.97;4.00;;;10.80;90.90;;;;;;5015344;28;20208;-76
2024/01/29 10:04:30;;;;;;;4.47;4.07;;;10.90;90.90;;;;;;5016500;28;20214;-77
2024/01/29 10:06:58;;;;;;;4.43;3.67;;;11.00;91.00;;;;;;5012805;28;20199;-77
2024/01/29 10:09:26;;;;;;;5.23;4.00;;;11.20;90.90;;;;;;4997442;28;20219;-77
2024/01/29 10:11:56;;;;;;;4.23;3.30;;;11.30;90.70;;;;;;4991591;28;20207;-77
2024/01/29 10:14:28;;;;;;;5.07;3.60;;;11.30;90.60;;;;;;4999147;28;20207;-76
2024/01/29 10:16:55;;;;;;;5.60;4.30;;;11.40;90.80;;;;;;5023188;28;20216;-77
2024/01/29 10:19:36;;;;;;;4.40;3.83;;;11.50;90.90;;;;;;4993631;28;20227;-77
2024/01/29 10:22:10;;;;;;;5.38;3.70;;;11.60;90.40;;;;;;5013776;28;20203;-77
2024/01/29 10:24:39;;;;;;;5.55;3.83;;;11.70;90.60;;;;;;4997313;28;20191;-77
2024/01/29 10:27:07;;;;;;;4.90;4.35;;;11.80;90.50;;;;;;5000139;28;20195;-77
2024/01/29 10:29:34;;;;;;;4.28;3.85;;;12.00;90.20;;;;;;5020454;28;20223;-77
2024/01/29 10:32:02;;;;;;;4.65;3.80;;;12.00;90.30;;;;;;5017694;28;20211;-78
2024/01/29 10:34:29;;;;;;;5.85;4.10;;;12.00;90.20;;;;;;5010486;28;20199;-79
2024/01/29 10:37:00;;;;;;;5.05;4.25;;;12.00;90.20;;;;;;5006433;28;20223;-78
2024/01/29 10:39:34;;;;;;;5.07;3.55;;;12.10;90.20;;;;;;5017903;28;20226;-78
2024/01/29 10:42:13;;;;;;;6.15;3.63;;;12.30;90.10;;;;;;5006898;28;20207;-78
2024/01/29 10:44:41;;;;;;;6.63;3.95;;;12.40;90.20;;;;;;5010281;28;20203;-79
2024/01/29 10:47:18;;;;;;;4.90;3.75;;;12.30;90.00;;;;;;5017088;28;20196;-78
2024/01/29 10:49:46;;;;;;;5.93;4.65;;;12.50;90.20;;;;;;4989906;28;20215;-79
2024/01/29 10:52:14;;;;;;;5.43;3.78;;;12.40;89.80;;;;;;5011227;28;20661;-79
2024/01/29 10:54:43;;;;;;;4.57;3.65;;;12.50;90.00;;;;;;4998625;28;20666;-78
2024/01/29 10:57:16;;;;;;;5.55;3.75;;;12.50;89.50;;;;;;4994188;28;20224;-80
2024/01/29 10:59:45;;;;;;;5.53;4.38;;;12.70;89.70;;;;;;5022250;28;20212;-78
2024/01/29 11:02:14;;;;;;;4.53;3.80;;;12.80;88.80;;;;;;5012967;28;20202;-80
2024/01/29 11:04:49;;;;;;;3.70;3.33;;;12.80;89.20;;;;;;5003981;28;20214;-80
2024/01/29 11:07:20;;;;;;;5.00;3.67;;;13.00;89.10;;;;;;4997194;28;20200;-78
2024/01/29 11:09:57;;;;;;;4.28;3.63;;;13.00;88.90;;;;;;5007012;28;20217;-80
2024/01/29 11:12:27;;;;;;;5.60;4.03;;;13.30;88.90;;;;;;5003558;28;20203;-79
2024/01/29 11:15:00;;;;;;;5.53;4.30;;;13.30;89.00;;;;;;5008559;28;20199;-78
2024/01/29 11:17:29;;;;;;;5.22;4.18;;;13.40;88.60;;;;;;5002620;28;20216;-79
2024/01/29 11:20:00;;;;;;;6.05;3.95;;;13.30;88.10;;;;;;5020833;28;20196;-79
2024/01/29 11:22:36;;;;;;;4.63;3.88;;;13.30;89.00;;;;;;5014196;28;20203;-78
2024/01/29 11:25:15;;;;;;;5.47;4.18;;;13.50;89.10;;;;;;5027390;28;20196;-78
2024/01/29 11:27:45;;;;;;;4.45;4.00;;;13.50;88.80;;;;;;5009355;28;20632;-78
2024/01/29 11:30:15;;;;;;;5.10;3.90;;;13.50;88.90;;;;;;5001897;28;20203;-80
2024/01/29 11:32:43;;;;;;;5.05;3.88;;;13.90;88.60;;;;;;4998448;28;20203;-78
2024/01/29 11:35:14;;;;;;;6.68;4.20;;;14.30;87.20;;;;;;5009101;28;20215;-79
2024/01/29 11:37:42;;;;;;;4.32;3.92;;;14.30;87.20;;;;;;5003408;28;20207;-78
2024/01/29 11:40:33;;;;;;;5.93;3.80;;;14.30;87.20;;;;;;5011818;28;20196;-78
2024/01/29 11:43:04;;;;;;;4.82;3.90;;;14.40;87.10;;;;;;5011028;28;20657;-78
2024/01/29 11:45:31;;;;;;;4.63;4.22;;;14.30;87.90;;;;;;5008905;28;20203;-78
2024/01/29 11:48:02;;;;;;;5.68;4.20;;;14.80;86.80;;;;;;5009862;28;20230;-78
2024/01/29 11:50:29;;;;;;;6.63;3.85;;;14.80;86.40;;;;;;5004549;28;20211;-78
2024/01/29 11:52:57;;;;;;;5.53;3.90;;;14.90;86.50;;;;;;5013423;28;20207;-78
2024/01/29 11:55:25;;;;;;;7.03;4.05;;;14.50;87.80;;;;;;4992402;28;20566;-78
2024/01/29 11:57:53;;;;;;;3.78;3.40;;;14.50;88.80;;;;;;5010800;28;20219;-79
2024/01/29 12:00:22;;;;;;;5.28;3.90;;;14.00;90.40;;;;;;4996751;28;20219;-79
2024/01/29 12:02:50;;;;;;;5.10;4.25;;;14.20;90.40;;;;;;5014638;28;20226;-78
2024/01/29 12:05:19;;;;;;;3.88;3.50;;;14.30;90.60;;;;;;5019466;28;20211;-78
2024/01/29 12:07:50;;;;;;;5.10;4.15;;;14.10;90.70;;;;;;5014475;28;20223;-79
2024/01/29 12:10:18;;;;;;;7.13;3.90;;;14.50;89.90;;;;;;4998290;28;20222;-78
2024/01/29 12:12:46;;;;;;;4.63;3.88;;;14.80;90.00;;;;;;5004162;28;20199;-80
2024/01/29 12:15:14;;;;;;;5.82;3.80;;;14.80;90.00;;;;;;5002928;28;20206;-78
2024/01/29 12:17:47;;;;;;;4.05;3.65;;;14.90;89.10;;;;;;5019229;28;20227;-78
2024/01/29 12:20:15;;;;;;;5.22;3.50;;;15.20;89.50;;;;;;5005912;28;20569;-79
2024/01/29 12:22:43;;;;;;;4.65;3.72;;;15.70;88.20;;;;;;5018804;28;20202;-80
2024/01/29 12:25:13;;;;;;;4.47;3.90;;;15.50;86.90;;;;;;5009681;28;20191;-78
2024/01/29 12:27:41;;;;;;;4.28;3.80;;;15.50;88.20;;;;;;5010453;28;20196;-80
2024/01/29 12:30:11;;;;;;;7.40;4.10;;;15.50;87.90;;;;;;5010943;28;20692;-78
2024/01/29 12:32:45;;;;;;;5.38;4.35;;;15.50;88.40;;;;;;4994314;28;20203;-78
2024/01/29 12:35:26;;;;;;;4.78;3.83;;;15.90;87.20;;;;;;5016741;28;20200;-78
2024/01/29 12:37:53;;;;;;;6.03;3.80;;;15.90;87.70;;;;;;4997207;28;20226;-78
2024/01/29 12:40:21;;;;;;;4.55;3.70;;;16.00;86.80;;;;;;5010556;28;20203;-79
2024/01/29 12:42:48;;;;;;;4.38;3.97;;;15.70;87.90;;;;;;5005743;28;20208;-78
2024/01/29 12:45:19;;;;;;;4.97;4.10;;;15.50;87.60;;;;;;5014996;28;20210;-78
2024/01/29 12:47:50;;;;;;;8.20;4.32;;;15.80;88.30;;;;;;4998640;28;20227;-78
2024/01/29 12:50:18;;;;;;;5.05;4.28;;;15.80;88.30;;;;;;4987664;28;20215;-79
2024/01/29 12:52:45;;;;;;;4.60;4.10;;;16.40;86.70;;;;;;4998372;28;20203;-79
2024/01/29 12:55:13;;;;;;;6.50;4.20;;;15.60;88.70;;;;;;5013943;28;20211;-78
2024/01/29 12:57:40;;;;;;;4.82;4.20;;;16.00;89.40;;;;;;4997027;28;20220;-78
2024/01/29 13:00:09;;;;;;;4.50;3.67;;;15.80;87.90;;;;;;5009609;28;20206;-78
2024/01/29 13:02:36;;;;;;;4.18;3.58;;;15.80;88.60;;;;;;5020854;28;20191;-78